x

Corpus Christi, Tx - 60nm Sse Of Corpus Christi, Tx (42020) Wave Buoy

5:50pm - Wed 23rd Jan 2019 All times are CST. -6 hours from GMT.

  • Sig Wave height 7.5ft
  • Swell Direction
  • Peak Period 7s
  • Average Period 6s
  • Wind
    22mph, 27mph gusts
  • Sea Temp 70°f
  • Air Temp 55°f
  • Sea Pressure 1020.3mb
  • Corpus Christi, Tx - 60nm Sse Of Corpus Christi, Tx
  • Corpus Christi, Tx - 60nm Sse Of Corpus Christi, Tx

More Historic Weather Station data

Upgrade to MSW Pro to gain access to the past 30 days of data for over 8000 Wavebouys and Weather Stations around the globe.

Join

Comparision Forecast

View Surf forecast
   
Wed 01/23 5:50pm 7.5ft 7s 6s 22 27 mph 1020.3mb 70f 55f
5:40pm  -   -   -  22 29 mph 1020.5mb 70f 55f
5:30pm  -   -   -  22 29 mph 1020.6mb 70f 55f
5:20pm  -   -   -  22 31 mph 1020.6mb 69f 55f
5:10pm  -   -   -  25 29 mph 1020.6mb 69f 55f
5:00pm  -   -   -  25 34 mph 1020.5mb 69f 55f
4:50pm 8ft 7s 6s 25 34 mph 1020.5mb 69f 55f
4:40pm 8ft  -  6s 27 34 mph 1020.3mb 69f 55f
4:30pm  -   -   -  29 36 mph 1020.3mb 69f 54f
4:20pm  -   -   -  27 36 mph 1020.4mb 69f 54f
4:10pm  -   -   -  27 34 mph 1020.3mb 69f 54f
4:00pm  -   -   -  25 34 mph 1020.3mb 69f 54f
3:50pm 8ft 7s 6s 25 34 mph 1020.2mb 69f 54f
3:40pm 8ft  -  6s 25 36 mph 1020.3mb 69f 54f
3:30pm  -   -   -  25 31 mph 1020.3mb 69f 54f
3:20pm  -   -   -  25 31 mph 1020.4mb 69f 54f
3:10pm  -   -   -  25 31 mph 1020.4mb 69f 54f
3:00pm  -   -   -  25 29 mph 1020.2mb 69f 54f
2:30pm  -   -   -  27 34 mph 1020mb 69f 53f
2:20pm  -   -   -  25 31 mph 1020.6mb 69f 53f
2:10pm  -   -   -  22 31 mph 1020.9mb 69f 53f
2:00pm  -   -   -  25 36 mph 1021mb 69f 53f
1:50pm 9ft 7s 6s 25 36 mph 1021.2mb 69f 52f
1:40pm 9ft  -  6s 27 34 mph 1021.5mb 69f 52f
1:30pm  -   -   -  29 36 mph 1021.6mb 69f 52f
1:20pm  -   -   -  27 36 mph 1021.5mb 69f 52f
1:10pm  -   -   -  25 34 mph 1021.7mb 69f 51f
1:00pm  -   -   -  25 36 mph 1021.8mb 69f 51f
12:50pm 11ft 8s 6s 27 34 mph 1021.8mb 69f 51f
12:40pm  -   -   -  25 34 mph 1021.9mb 69f 51f
12:30pm  -   -   -  25 34 mph 1022mb 69f 51f
12:20pm  -   -   -  27 36 mph 1021.9mb 69f 51f
12:10pm  -   -   -  27 34 mph 1022.2mb - 51f
12:00pm  -   -   -  27 36 mph 1022mb - 51f
11:50am 12ft 8s 6s 29 36 mph 1022.3mb 69f 51f
11:40am 12ft  -  6s 29 38 mph 1022.2mb 69f 51f
11:30am  -   -   -  31 40 mph 1022.2mb 69f 51f
11:20am  -   -   -  34 43 mph 1022.1mb 69f 51f
11:10am  -   -   -  31 43 mph 1022.2mb 69f 50f
11:00am  -   -   -  31 38 mph 1022.2mb 69f 50f
10:50am 11ft 8s 6s 31 40 mph 1022.1mb 69f 50f
10:40am  -   -   -  29 40 mph 1022mb 69f 51f
10:30am  -   -   -  31 38 mph 1022.2mb 69f 51f
10:20am  -   -   -  31 43 mph 1022.1mb 69f 51f
10:10am  -   -   -  31 40 mph 1022mb 69f 51f
10:00am  -   -   -  31 45 mph 1021.8mb 69f 51f
9:50am 11.5ft 8s 6s 34 43 mph 1021.9mb 69f 50f
9:40am  -   -   -  34 43 mph 1021.8mb 69f 50f
9:30am  -   -   -  34 45 mph 1021.6mb 69f 50f
9:20am  -   -   -  34 45 mph 1021.3mb 69f 50f
9:10am  -   -   -  29 40 mph 1021mb 69f 51f
9:00am  -   -   -  31 43 mph 1020.7mb 69f 51f
8:50am 13ft 8s 7s 31 43 mph 1020.6mb - 51f
8:40am 13ft  -  7s 31 43 mph 1020.4mb 69f 51f
8:30am  -   -   -  31 40 mph 1020.3mb 69f 51f
8:20am  -   -   -  34 43 mph 1019.9mb 69f 51f
8:10am  -   -   -  34 45 mph 1019.6mb 69f 51f
8:00am  -   -   -  36 45 mph 1019.3mb 69f 52f
7:50am 13.5ft 8s 7s 36 45 mph 1019.1mb 69f 51f
7:40am  -   -   -  36 49 mph 1018.8mb 69f 52f
7:30am  -   -   -  38 49 mph 1018.3mb 69f 52f
7:20am  -   -   -  36 49 mph 1018.2mb 69f 52f
7:10am  -   -   -  36 49 mph 1017.8mb 69f 52f
7:00am  -   -   -  36 47 mph 1017.7mb 69f 52f
6:50am 13ft  -  7s 36 47 mph 1017.6mb - 53f
6:40am 13ft 7s  -   -  mph - 69f -
6:30am  -   -   -  38 49 mph 1016.5mb 69f 53f
6:20am  -   -   -  34 45 mph 1016.3mb 69f 55f
6:10am  -   -   -  38 49 mph 1015.8mb 69f 55f
6:00am  -   -   -  36 49 mph 1015.5mb 69f 56f
5:50am 12ft 10s 6s 36 47 mph 1015.3mb 69f 57f
5:40am  -   -   -  36 47 mph 1015.2mb 69f 57f
5:30am  -   -   -  38 54 mph 1014.9mb 69f 56f
5:20am  -   -   -  36 47 mph 1013.8mb 69f 57f
5:10am  -   -   -  36 45 mph 1014mb 69f 57f
5:00am  -   -   -  36 47 mph 1013.6mb 69f 57f
4:50am 9.5ft 10s 7s 36 47 mph 1013.5mb 69f 58f
4:40am 9.5ft  -  7s 36 47 mph 1013.2mb 69f 59f
4:30am  -   -   -  36 45 mph 1013.4mb 69f 59f
4:20am  -   -   -  31 43 mph 1013.2mb 68f 61f
4:10am  -   -   -  9 36 mph 1012.9mb 68f 67f
4:00am  -   -   -  2 4 mph 1012.3mb 68f 68f
3:50am 10.5ft 10s 8s 2 7 mph 1012.2mb 68f 68f
3:40am  -   -   -  2 7 mph 1012.1mb 68f 68f
3:30am  -   -   -  4 7 mph 1012mb 68f 68f
3:20am  -   -   -  4 9 mph 1012mb 69f 68f
3:10am  -   -   -  7 11 mph 1011.7mb 68f 69f
3:00am  -   -   -  9 11 mph 1011.6mb 69f 69f
2:50am 11ft 10s 8s 9 13 mph 1011.3mb 69f 69f
2:40am  -   -   -  9 13 mph 1011.4mb 70f 69f
2:30am  -   -   -  9 11 mph 1011.6mb 70f 69f
2:20am  -   -   -  7 11 mph 1012.1mb 70f 69f
2:10am  -   -   -  7 11 mph 1012mb 69f 69f
2:00am  -   -   -  9 13 mph 1011.9mb 69f 69f
1:50am 11ft 9s 8s 7 11 mph 1012mb 69f 69f
1:40am 11ft  -  8s 7 11 mph 1012.1mb 69f 69f
1:30am  -   -   -  9 13 mph 1011.9mb 69f 69f
1:20am  -   -   -  9 11 mph 1011.7mb 69f 70f
1:10am  -   -   -  11 16 mph 1011.6mb 69f 69f
1:00am  -   -   -  9 16 mph 1011.3mb 69f 69f
12:50am 11.5ft 10s 8s 7 13 mph 1011.8mb 69f 69f
12:40am  -   -   -  4 9 mph 1011.7mb 69f 69f
12:30am  -   -   -  2 7 mph 1011.7mb 69f 69f
12:20am  -   -   -  4 7 mph 1011.5mb 69f 69f
12:10am  -   -   -  4 11 mph 1011.3mb 69f 69f
12:00am  -   -   -  7 11 mph 1011.4mb 69f 69f
Tue 01/22 11:50pm 10.5ft 10s 7s 9 13 mph 1011.9mb - 69f
11:40pm 10.5ft  -  7s 9 11 mph 1011.3mb 69f 69f
11:30pm  -   -   -  7 11 mph 1011.2mb 69f 69f
11:20pm  -   -   -  7 9 mph 1011.2mb 69f 69f
11:10pm  -   -   -  9 11 mph 1011.2mb 69f 70f
11:00pm  -   -   -  11 13 mph 1010.9mb - 70f
10:50pm 10ft 9s 7s 11 13 mph 1010.9mb 69f 70f
10:40pm  -   -   -  13 18 mph 1010.4mb 69f 71f
10:30pm  -   -   -  16 20 mph 1009.4mb 69f -
10:20pm  -   -   -  18 22 mph 1009.3mb 69f 71f
10:10pm  -   -   -  18 27 mph 1009.1mb 69f 71f
10:00pm  -   -   -  20 27 mph 1008.6mb 69f 71f
9:50pm 10ft 10s 7s 18 25 mph 1008.5mb 69f 71f
9:40pm  -   -   -  18 22 mph 1008.7mb 69f 71f
9:30pm  -   -   -  20 25 mph 1008.9mb 69f 71f
9:20pm  -   -   -  20 27 mph 1008.9mb 69f 71f
9:10pm  -   -   -  20 27 mph 1008.7mb 69f 71f
9:00pm  -   -   -  18 22 mph 1008.9mb 69f 71f
8:50pm 11ft 9s 7s 16 20 mph 1009.1mb 69f 71f
8:40pm 11ft  -  7s 18 22 mph 1009.2mb 69f 71f
8:30pm  -   -   -  18 25 mph 1008.8mb 69f 71f
8:20pm  -   -   -  20 29 mph 1008.3mb 69f 71f
8:10pm  -   -   -  20 27 mph 1008.2mb 69f 71f
8:00pm  -   -   -  20 27 mph 1008.3mb 69f 71f
7:50pm 9.5ft 9s 6s 25 31 mph 1008.1mb 69f 71f
7:40pm 9.5ft  -  6s 25 31 mph 1007.7mb 69f 71f
7:30pm  -   -   -  25 31 mph 1007.6mb 69f 71f
7:20pm  -   -   -  25 34 mph 1007.6mb 69f 71f
7:10pm  -   -   -  27 34 mph 1007.3mb 69f 72f
7:00pm  -   -   -  27 34 mph 1007.4mb 69f 72f
6:50pm 10ft 9s 6s 27 36 mph 1007.3mb 69f 71f
6:40pm  -   -   -  25 31 mph 1007mb 69f 71f
6:30pm  -   -   -  25 31 mph 1007mb 69f 71f
6:20pm  -   -   -  25 31 mph 1007.1mb - 71f
6:10pm  -   -   -  27 34 mph 1006.7mb 70f 71f
6:00pm  -   -   -  27 36 mph 1006.6mb 70f 71f
5:50pm 9ft 9s 6s 27 36 mph 1006.4mb 70f 71f
5:40pm  -   -   -  29 36 mph 1006.4mb 70f 71f
5:30pm  -   -   -  29 36 mph 1006.3mb 70f 71f
5:20pm  -   -   -  29 36 mph 1006.4mb 70f 71f
5:10pm  -   -   -  27 31 mph 1007mb 70f 71f
5:00pm  -   -   -  25 34 mph 1007mb 70f 71f
4:50pm 10ft 9s 7s 25 29 mph 1007.1mb 70f 71f
4:40pm 10ft  -  7s 25 31 mph 1007.2mb 70f 71f
4:30pm  -   -   -  27 31 mph 1007.2mb 70f 71f
4:20pm  -   -   -  27 34 mph 1007.2mb 70f 71f
4:10pm  -   -   -  27 34 mph 1007mb 70f 71f
4:00pm  -   -   -  27 34 mph 1007.1mb 70f 71f
3:50pm 10ft 9s 7s 29 36 mph 1007.1mb 70f 71f
3:40pm 10ft  -  7s 27 34 mph 1007.2mb 70f 71f
3:30pm  -   -   -  27 36 mph 1007.1mb 70f 71f
3:20pm  -   -   -  27 34 mph 1006.9mb 70f 71f
3:10pm  -   -   -  29 36 mph 1006.9mb 70f 71f
3:00pm  -   -   -  27 36 mph 1007mb 70f 71f
2:50pm 11ft 9s 7s 27 34 mph 1007.3mb 70f 70f
2:40pm  -   -   -  27 34 mph 1007.6mb 70f 70f
2:30pm  -   -   -  27 34 mph 1008.1mb 70f 70f
2:20pm  -   -   -  27 36 mph 1008.3mb 70f 71f
2:10pm  -   -   -  27 34 mph 1008.5mb 70f 71f
2:00pm  -   -   -  27 34 mph 1008.6mb 70f 71f
1:50pm 11ft 8s 7s 27 36 mph 1008.7mb 70f -
1:40pm  -   -   -  29 34 mph 1008.9mb 70f 70f
1:30pm  -   -   -  29 36 mph 1009mb 70f 70f
1:20pm  -   -   -  29 36 mph 1009.3mb 70f 70f
1:10pm  -   -   -  29 36 mph 1009.4mb 70f 71f
1:00pm  -   -   -  27 34 mph 1009.7mb 70f 71f
12:50pm 11ft 9s 6s 27 34 mph 1010mb 70f 70f
12:40pm  -   -   -  29 36 mph 1010.1mb 70f 70f
12:30pm  -   -   -  29 36 mph 1010mb 70f 70f
12:20pm  -   -   -  29 36 mph 1010.2mb 70f 70f
12:10pm  -   -   -  29 38 mph 1010.2mb 70f 70f
12:00pm  -   -   -  29 34 mph 1010.4mb 70f 71f
11:50am 11.5ft  -  7s 27 34 mph 1010.9mb 70f 70f
11:40am 11.5ft 9s 7s  -  mph - - -
11:30am  -   -   -  29 36 mph 1011.2mb 70f 71f
11:20am  -   -   -  29 36 mph 1011.6mb 70f 71f
11:10am  -   -   -  27 34 mph 1011.8mb 70f 71f
11:00am  -   -   -  27 36 mph 1012.2mb 70f 71f
10:50am 10.5ft 8s 6s 29 36 mph 1012.2mb 70f 71f
10:40am 10.5ft  -  6s 31 40 mph 1011.6mb 70f 71f
10:30am  -   -   -  31 38 mph 1011.6mb 70f 71f
10:20am  -   -   -  29 38 mph 1011.6mb 70f 71f
10:10am  -   -   -  31 38 mph 1011.9mb 70f 71f
10:00am  -   -   -  29 40 mph 1011.8mb 70f 71f
9:50am 11ft 8s 7s 27 34 mph 1011.9mb 70f 71f
9:40am  -   -   -  29 36 mph 1012.1mb 70f 71f
9:30am  -   -   -  27 36 mph 1012mb 70f 71f
9:20am  -   -   -  27 34 mph 1011.9mb 70f 71f
9:10am  -   -   -  27 38 mph 1012mb 70f 71f
9:00am  -   -   -  29 38 mph 1011.9mb 70f 71f
8:50am 10ft 8s 6s 29 40 mph 1011.7mb 70f 72f
8:40am  -   -   -  34 43 mph 1011.3mb 70f 72f
8:30am  -   -   -  34 43 mph 1011.5mb 70f 72f
8:20am  -   -   -  31 40 mph 1011.6mb 70f 71f
8:10am  -   -   -  29 38 mph 1011.6mb 70f 71f
8:00am  -   -   -  29 38 mph 1011.6mb 70f 71f
7:50am 10ft 8s 6s 27 36 mph 1011.8mb 70f 71f
7:40am  -   -   -  31 40 mph 1011.6mb 70f 71f
7:30am  -   -   -  29 40 mph 1011.6mb 70f 71f
7:20am  -   -   -  29 38 mph 1011.7mb 70f 71f
7:10am  -   -   -  31 40 mph 1011.3mb 70f 71f
7:00am  -   -   -  31 40 mph 1011.3mb 70f 71f
6:50am 10ft 8s 6s 31 40 mph 1011.3mb 70f 70f
6:40am  -   -   -  29 38 mph 1011.4mb - 71f
6:30am  -   -   -  31 40 mph 1011.4mb 70f 71f
6:20am  -   -   -  31 40 mph 1011.4mb 70f 71f
6:10am  -   -   -  31 40 mph 1011.3mb 70f 71f
6:00am  -   -   -  31 38 mph 1011.3mb 70f 71f
5:50am 9.5ft 8s 6s 34 43 mph 1011.3mb 70f 71f
5:40am 9.5ft  -  6s 31 40 mph 1011.5mb 70f 71f
5:30am  -   -   -  29 38 mph 1011.6mb 70f 71f
5:20am  -   -   -  31 40 mph 1011.7mb 70f 71f
5:10am  -   -   -  31 40 mph 1011.9mb 70f 70f
5:00am  -   -   -  29 38 mph 1012mb 70f 70f
4:50am 9ft 8s 6s 27 36 mph 1012.2mb 70f 70f
4:40am 9ft  -  6s 27 36 mph 1012.2mb 70f 70f
4:30am  -   -   -  27 38 mph 1012.4mb - 70f
4:20am  -   -   -  29 38 mph 1012.4mb 70f 70f
4:10am  -   -   -  31 40 mph 1012.7mb 70f 70f
4:00am  -   -   -  29 36 mph 1012.7mb 70f 70f
3:50am 8.5ft 8s 6s 29 38 mph 1012.6mb 70f 70f
3:40am  -   -   -  29 36 mph 1012.8mb 70f 70f
3:30am  -   -   -  31 40 mph 1013.1mb 70f 70f
3:20am  -   -   -  29 36 mph 1013mb 70f 70f
3:10am  -   -   -  29 36 mph 1013.3mb 70f 70f
3:00am  -   -   -  27 36 mph 1013.5mb 70f 70f
2:50am 8ft 8s 6s 29 36 mph 1013.7mb 70f 70f
2:40am  -   -   -  27 34 mph 1013.8mb 70f 70f
2:30am  -   -   -  29 36 mph 1014mb 70f 70f
2:20am  -   -   -  29 34 mph 1014.2mb 70f 70f
2:10am  -   -   -  29 38 mph 1014.3mb - 70f
2:00am  -   -   -  29 38 mph 1014.5mb 70f 70f
1:50am 9ft 7s 6s 29 36 mph 1014.6mb 70f 70f
1:40am  -   -   -  29 38 mph 1014.7mb 70f 70f
1:30am  -   -   -  29 38 mph 1014.7mb 70f 70f
1:20am  -   -   -  29 36 mph 1015mb 70f 70f
1:10am  -   -   -  27 34 mph 1015mb 70f 70f
1:00am  -   -   -  29 36 mph 1015.1mb 70f 70f
12:50am 8ft 7s 5s 29 36 mph 1015.1mb 70f 70f
12:40am 8ft  -  5s 29 36 mph 1015.3mb 70f 70f
12:30am  -   -   -  27 34 mph 1015.3mb 70f 70f
12:20am  -   -   -  29 36 mph 1015.5mb 70f 70f
12:10am  -   -   -  29 38 mph 1015.4mb 70f 70f
12:00am  -   -   -  29 36 mph 1015.5mb 70f 70f
Mon 01/21 11:50pm 8ft 7s 5s 29 38 mph 1015.6mb 70f 70f
11:40pm  -   -   -  29 36 mph 1015.7mb 70f 70f
11:30pm  -   -   -  29 36 mph 1015.9mb 70f 70f
11:20pm  -   -   -  29 36 mph 1016mb 70f 70f
11:10pm  -   -   -  29 34 mph 1016.1mb 70f 70f
11:00pm  -   -   -  29 36 mph 1016.2mb 70f 70f
10:50pm 7ft 6s 5s 29 36 mph 1016.3mb 70f 69f
10:40pm  -   -   -  29 36 mph 1016.2mb 70f 69f
10:30pm  -   -   -  31 38 mph 1016.2mb - 69f
10:20pm  -   -   -  31 38 mph 1016.1mb 69f 69f
10:10pm  -   -   -  29 38 mph 1016.1mb 69f 69f
10:00pm  -   -   -  29 36 mph 1016.1mb 70f 69f
9:50pm 6ft 6s 5s 29 36 mph 1016.2mb 69f 69f
9:40pm 6ft  -  5s 29 36 mph 1016.3mb 70f 69f
9:30pm  -   -   -  25 31 mph 1016.4mb 69f 69f
9:20pm  -   -   -  27 34 mph 1016.4mb 69f 69f
9:10pm  -   -   -  27 34 mph 1016.4mb 69f 69f
9:00pm  -   -   -  27 34 mph 1016.5mb 69f 69f
8:50pm 5ft 6s 5s 27 34 mph 1016.4mb 69f 69f
8:40pm  -   -   -  27 34 mph 1016.5mb 69f 69f
8:30pm  -   -   -  27 34 mph 1016.7mb 69f 69f
8:20pm  -   -   -  27 31 mph 1016.8mb 69f 69f
8:10pm  -   -   -  27 31 mph 1016.7mb - 69f
8:00pm  -   -   -  27 34 mph 1016.6mb 69f 69f
7:50pm 5ft 5s 5s 25 31 mph 1016.5mb 69f 69f
7:40pm  -   -   -  27 34 mph 1016.6mb - 69f
7:30pm  -   -   -  27 34 mph 1016.4mb 69f 69f
7:20pm  -   -   -  25 31 mph 1016.4mb 69f 69f
7:10pm  -   -   -  25 31 mph 1016.4mb - 69f
7:00pm  -   -   -  25 29 mph 1016.4mb - 69f
6:50pm 4.5ft 5s 4s 25 29 mph 1016.4mb 69f 68f
6:40pm 4.5ft  -  4s 25 29 mph 1016.5mb 69f 68f
6:30pm  -   -   -  25 31 mph 1016.4mb 69f 68f
6:20pm  -   -   -  25 29 mph 1016.6mb 69f 68f
6:10pm  -   -   -  22 29 mph 1016.8mb 69f 68f
6:00pm  -   -   -  22 29 mph 1016.9mb 69f 68f
5:50pm 3.5ft 5s 4s 22 29 mph 1017mb 69f 68f
5:40pm  -   -   -  22 27 mph 1017.1mb 69f 68f
5:30pm  -   -   -  22 29 mph 1017.1mb 69f 68f
5:20pm  -   -   -  22 27 mph 1017.2mb 69f 68f
5:10pm  -   -   -  20 27 mph 1017.3mb 69f 68f
5:00pm  -   -   -  20 25 mph 1017.3mb 69f 68f
4:50pm 4ft 5s 4s 20 25 mph 1017.5mb 69f 68f
4:40pm  -   -   -  20 27 mph 1017.6mb 69f 68f
4:30pm  -   -   -  20 27 mph 1017.7mb 69f 68f
4:20pm  -   -   -  20 25 mph 1017.7mb 69f 68f
4:10pm  -   -   -  20 25 mph 1017.8mb 69f 68f
4:00pm  -   -   -  20 25 mph 1017.9mb 69f 68f
3:50pm 3.5ft 5s 4s 20 25 mph 1017.8mb - 68f
3:40pm  -   -   -  20 25 mph 1018mb 69f 68f
3:30pm  -   -   -  20 25 mph 1018.2mb - 68f
3:20pm  -   -   -  18 25 mph 1018.2mb 69f 68f
3:10pm  -   -   -  20 25 mph 1018.3mb 69f 68f
3:00pm  -   -   -  20 22 mph 1018.4mb 69f 67f
2:50pm 3.5ft 5s 4s 20 25 mph 1018.5mb 69f 67f
2:40pm 3.5ft  -  4s 20 25 mph 1018.7mb 69f 67f
2:30pm  -   -   -  20 27 mph 1018.8mb - 67f
2:20pm  -   -   -  20 25 mph 1018.8mb 69f 67f
2:10pm  -   -   -  20 25 mph 1019mb 69f 67f
2:00pm  -   -   -  20 25 mph 1019.1mb 69f 67f
1:50pm 3.5ft 4s 4s 20 25 mph 1019.3mb 69f 67f
1:40pm  -   -   -  20 25 mph 1019.4mb 69f 67f
1:30pm  -   -   -  20 25 mph 1019.7mb 69f 67f
1:20pm  -   -   -  20 25 mph 1019.9mb 69f 67f
1:10pm  -   -   -  20 25 mph 1020.2mb 69f 67f
1:00pm  -   -   -  20 25 mph 1020.4mb 69f 67f
12:50pm 3ft 4s 4s 20 25 mph 1020.8mb 69f 67f
12:40pm  -   -   -  20 25 mph 1021mb 69f 67f
12:30pm  -   -   -  20 25 mph 1021.2mb 69f 67f
12:20pm  -   -   -  18 22 mph 1021.3mb 69f 66f
12:10pm  -   -   -  18 22 mph 1021.6mb 69f 66f
12:00pm  -   -   -  18 22 mph 1021.9mb 69f 66f
11:50am 3ft 4s 4s 18 22 mph 1022.2mb 69f 66f
11:40am  -   -   -  16 20 mph 1022.3mb 69f 66f
11:30am  -   -   -  16 20 mph 1022.5mb 69f 66f
11:20am  -   -   -  18 20 mph 1022.6mb 69f 66f
11:10am  -   -   -  16 20 mph 1022.8mb 69f 66f
11:00am  -   -   -  16 20 mph 1022.8mb 69f 66f
10:50am 3ft 4s 4s 16 20 mph 1022.9mb 69f 66f
10:40am  -   -   -  16 20 mph 1022.9mb 69f 66f
10:30am  -   -   -  16 20 mph 1022.9mb 69f 65f
10:20am  -   -   -  16 20 mph 1022.9mb 69f 65f
10:10am  -   -   -  16 22 mph 1022.9mb 69f 65f
10:00am  -   -   -  18 20 mph 1022.9mb 69f 65f
9:50am 3ft 4s 4s 18 22 mph 1022.8mb 69f 65f
9:40am  -   -   -  18 22 mph 1022.6mb 69f 65f
9:30am  -   -   -  18 22 mph 1022.5mb 69f 65f
9:20am  -   -   -  18 22 mph 1022.5mb 69f 64f
9:10am  -   -   -  18 22 mph 1022.5mb 69f 64f
9:00am  -   -   -  18 25 mph 1022.4mb - 64f
8:50am 2.5ft 3s 4s 18 22 mph 1022.3mb 69f 64f
8:40am  -   -   -  16 20 mph 1022.3mb 69f 64f
8:30am  -   -   -  18 22 mph 1022.3mb 69f 64f
8:20am  -   -   -  16 20 mph 1022.2mb 69f 63f
8:10am  -   -   -  18 22 mph 1022.3mb 69f 63f
8:00am  -   -   -  18 20 mph 1022.2mb 69f 63f
7:50am 2.5ft 3s 4s 16 20 mph 1022.2mb 69f 62f
7:40am  -   -   -  16 20 mph 1022.2mb 69f 62f
7:30am  -   -   -  16 20 mph 1022.4mb 69f 62f
7:20am  -   -   -  16 20 mph 1022.3mb 69f 62f
7:10am  -   -   -  16 20 mph 1022.2mb 69f 62f
7:00am  -   -   -  18 22 mph 1022.1mb 69f -
6:50am 2.5ft 6s 4s 18 22 mph 1022mb 69f 62f
6:40am 2.5ft  -  4s 16 20 mph 1021.9mb 70f 62f
6:30am  -   -   -  16 20 mph 1021.9mb 70f 61f
6:20am  -   -   -  16 22 mph 1022mb 70f 61f
6:10am  -   -   -  16 20 mph 1022mb - 61f
6:00am  -   -   -  16 20 mph 1021.9mb 70f 61f
5:50am 2.5ft 6s 4s 16 20 mph 1021.9mb 70f 61f
5:40am 2.5ft  -  4s 16 20 mph 1021.9mb 70f 61f
5:30am  -   -   -  16 20 mph 1021.9mb 70f 60f
5:20am  -   -   -  13 18 mph 1021.9mb 70f 60f
5:10am  -   -   -  16 20 mph 1021.9mb 70f 60f
5:00am  -   -   -  16 20 mph 1022mb 70f 60f
4:50am 2ft 5s 4s 13 18 mph 1022.1mb 70f 60f
4:40am 2ft  -  4s 13 18 mph 1022.2mb 70f 60f
4:30am  -   -   -  13 20 mph 1022.4mb 70f 60f
4:20am  -   -   -  13 18 mph 1022.4mb 70f 60f
4:10am  -   -   -  13 18 mph 1022.5mb 70f 60f
4:00am  -   -   -  16 18 mph 1022.4mb 70f 60f
3:50am 2.5ft 5s 4s 13 18 mph 1022.6mb 70f 60f
3:40am  -   -   -  13 18 mph 1022.5mb 70f 59f
3:30am  -   -   -  13 18 mph 1022.5mb 70f 59f
3:20am  -   -   -  13 18 mph 1022.7mb 70f 59f
3:10am  -   -   -  13 18 mph 1022.9mb 70f 59f
3:00am  -   -   -  11 18 mph 1023.2mb 70f 59f
2:50am 2.5ft 6s 4s 11 16 mph 1023.4mb 70f 59f
2:40am  -   -   -  11 18 mph 1023.4mb 70f 59f
2:30am  -   -   -  13 18 mph 1023.4mb 70f 59f
2:20am  -   -   -  13 16 mph 1023.4mb 70f 59f
2:10am  -   -   -  13 20 mph 1023.5mb 70f 59f
2:00am  -   -   -  13 18 mph 1023.6mb - 58f
1:50am 2.5ft 6s 5s 11 18 mph 1023.6mb 70f 59f
1:40am  -   -   -  13 16 mph 1023.8mb 70f 58f
1:30am  -   -   -  11 16 mph 1024.1mb 70f 58f
1:20am  -   -   -  11 16 mph 1024.1mb 70f 58f
1:10am  -   -   -  11 16 mph 1024.1mb 70f 58f
1:00am  -   -   -  11 16 mph 1024.2mb 70f 58f
12:50am 2.5ft 6s 5s 9 13 mph 1024.4mb 70f 58f
12:40am 2.5ft  -  5s 9 13 mph 1024.6mb 70f 58f
12:30am  -   -   -  9 13 mph 1024.7mb 70f 58f
12:20am  -   -   -  7 13 mph 1024.9mb 70f 58f
12:10am  -   -   -  4 9 mph 1025mb 70f 57f
12:00am  -   -   -  7 11 mph 1025.2mb 70f 58f
Sun 01/20 11:50pm 2.5ft 6s 5s 7 9 mph 1025.3mb 70f 58f
11:40pm 2.5ft  -  5s 7 11 mph 1025.4mb 70f 58f
11:30pm  -   -   -  4 9 mph 1025.4mb 70f 57f
11:20pm  -   -   -  4 11 mph 1025.5mb 70f 57f
11:10pm  -   -   -  4 9 mph 1025.5mb 70f 57f
11:00pm  -   -   -  4 9 mph 1025.7mb - 57f
10:50pm 2.5ft 6s 5s 4 9 mph 1025.6mb 70f 57f
10:40pm 2.5ft  -  5s 4 9 mph 1025.7mb 70f 57f
10:30pm  -   -   -  4 7 mph 1025.6mb 70f 57f
10:20pm  -   -   -  4 7 mph 1025.5mb 70f 57f
10:10pm  -   -   -  2 7 mph 1025.5mb - 57f
10:00pm  -   -   -  2 7 mph 1025.5mb 70f 57f
9:50pm 2.5ft 6s 5s 2 7 mph 1025.4mb 70f 57f
9:40pm  -   -   -  2 4 mph 1025.4mb 70f 57f
9:30pm  -   -   -  4 7 mph 1025.4mb - 56f
9:20pm  -   -   -  4 9 mph 1025.5mb 70f 57f
9:10pm  -   -   -  2 4 mph 1025.4mb 70f 57f
9:00pm  -   -   -  2 7 mph 1025.4mb 70f 56f
8:50pm 3ft 6s 5s 4 7 mph 1025.2mb 70f 56f
8:40pm  -   -   -  4 7 mph 1025.2mb 70f 56f
8:30pm  -   -   -  4 9 mph 1025.3mb 70f 56f
8:20pm  -   -   -  2 4 mph 1025.4mb 70f 56f
8:10pm  -   -   -  2 4 mph 1025.6mb 70f 56f
8:00pm  -   -   -  2 4 mph 1025.7mb 70f 56f
7:50pm 3ft 6s 5s 4 7 mph 1025.7mb 70f 56f
7:40pm  -   -   -  4 9 mph 1025.7mb 70f 56f
7:30pm  -   -   -  4 7 mph 1025.6mb 70f 56f
7:20pm  -   -   -  2 7 mph 1025.6mb 70f 56f
7:10pm  -   -   -  2 4 mph 1025.5mb 70f 56f
7:00pm  -   -   -  4 9 mph 1025.4mb 70f 56f
6:50pm 3.5ft 6s 5s 2 7 mph 1025.5mb 70f 56f
6:40pm  -   -   -  2 4 mph 1025.6mb 70f 56f
6:30pm  -   -   -  4 7 mph 1026.2mb - 56f
6:20pm  -   -   -  2 9 mph 1025.4mb 70f 56f
6:10pm  -   -   -  2 7 mph 1025.4mb 70f 56f
6:00pm  -   -   -  4 7 mph 1025.4mb 70f 56f
5:50pm 3.5ft 6s 5s 2 7 mph 1025.4mb 70f 56f
5:40pm  -   -   -  7 11 mph 1025.4mb 70f 56f
5:30pm  -   -   -  2 7 mph 1025.4mb 70f 56f
5:20pm  -   -   -  7 9 mph 1025.4mb 70f 56f
5:10pm  -   -   -  4 7 mph 1025.4mb 70f 56f
5:00pm  -   -   -  4 11 mph 1025.5mb 70f 56f
4:50pm 4.5ft 6s 5s 4 9 mph 1025.5mb 70f 56f
4:40pm 4.5ft  -  5s 7 11 mph 1025.5mb 70f 56f
4:30pm  -   -   -  7 11 mph 1025.4mb - 56f
4:20pm  -   -   -  7 11 mph 1025.4mb 70f 55f
4:10pm  -   -   -  7 11 mph 1025.7mb 70f 55f
4:00pm  -   -   -  7 11 mph 1025.7mb 70f 55f
3:50pm 4ft  -  5s 9 13 mph 1025.8mb 70f 55f
3:40pm 4ft 6s 5s  -  mph - - -
3:30pm  -   -   -  9 13 mph 1025.8mb 70f 55f
3:20pm  -   -   -  9 11 mph 1025.9mb 70f 55f
3:10pm  -   -   -  11 16 mph 1026mb 70f 55f
3:00pm  -   -   -  11 16 mph 1026mb 70f 55f
2:50pm 4.5ft 7s 5s 11 18 mph 1026.2mb 70f 55f
2:40pm 4.5ft  -  5s 11 18 mph 1026mb 70f 55f
2:30pm  -   -   -  13 18 mph 1026mb 70f 55f
2:20pm  -   -   -  13 18 mph 1026.3mb 70f 54f
2:10pm  -   -   -  13 20 mph 1026.5mb 70f 54f
2:00pm  -   -   -  13 18 mph 1026.7mb 70f 54f
1:50pm 5ft 7s 5s 16 20 mph 1026.9mb 70f 54f
1:40pm 5ft  -  5s 13 20 mph 1027.1mb 70f 54f
1:30pm  -   -   -  16 20 mph 1027.3mb 70f 54f
1:20pm  -   -   -  13 20 mph 1027.4mb 70f 54f
1:10pm  -   -   -  13 20 mph 1027.4mb 70f 54f
1:00pm  -   -   -  13 18 mph 1027.6mb 70f 54f
12:50pm 6ft  -  5s 16 20 mph 1027.8mb 70f 54f
12:40pm 6ft 7s 5s  -  mph - - -
12:30pm  -   -   -  16 22 mph 1028.1mb 70f 53f
12:20pm  -   -   -  18 22 mph 1028.1mb 70f 54f
12:10pm  -   -   -  18 25 mph 1028.2mb 69f 54f
12:00pm  -   -   -  18 25 mph 1028.2mb 69f 54f
11:50am 5.5ft 7s 5s 18 22 mph 1028.4mb 69f 54f
11:40am  -   -   -  18 22 mph 1028.6mb 69f 54f
11:30am  -   -   -  16 22 mph 1028.7mb 69f 54f
11:20am  -   -   -  20 25 mph 1028.7mb 69f 54f
11:10am  -   -   -  20 25 mph 1028.5mb 69f 53f
11:00am  -   -   -  20 25 mph 1028.7mb 69f 53f
10:50am 6ft 7s 5s 20 25 mph 1028.8mb 69f 53f
10:40am  -   -   -  20 25 mph 1028.8mb 69f 53f
10:30am  -   -   -  20 25 mph 1028.9mb 69f 53f
10:20am  -   -   -  20 25 mph 1029mb 69f 53f
10:10am  -   -   -  20 27 mph 1029.1mb 69f 53f
10:00am  -   -   -  22 27 mph 1028.9mb 69f 54f
9:50am 6.5ft 7s 6s 22 27 mph 1028.7mb 69f 53f
9:40am 6.5ft  -  6s 22 29 mph 1028.7mb 69f 53f
9:30am  -   -   -  22 29 mph 1028.5mb - 54f
9:20am  -   -   -  22 29 mph 1028.3mb 69f 54f
9:10am  -   -   -  22 29 mph 1028.1mb 69f 54f
9:00am  -   -   -  22 29 mph 1028mb 69f 54f
8:50am 7ft 7s 5s 25 29 mph 1028mb 69f 54f
8:40am  -   -   -  22 29 mph 1027.9mb 69f 54f
8:30am  -   -   -  22 34 mph 1028mb 69f 54f
8:20am  -   -   -  22 29 mph 1027.9mb 69f 53f
8:10am  -   -   -  22 27 mph 1027.9mb 69f 53f
8:00am  -   -   -  22 27 mph 1027.8mb 69f 53f
7:50am 6.5ft 8s 6s 22 27 mph 1027.8mb 69f 53f
7:40am 6.5ft  -  6s 22 29 mph 1027.9mb 69f 53f
7:30am  -   -   -  22 29 mph 1027.7mb 69f -
7:20am  -   -   -  25 29 mph 1027.6mb 69f 53f
7:10am  -   -   -  22 29 mph 1027.3mb - 53f
7:00am  -   -   -  25 34 mph 1027.3mb - 53f
6:50am 6.5ft 7s 5s 25 31 mph 1027.3mb 69f 53f
6:40am 6.5ft  -  5s 25 29 mph 1027.4mb 69f 53f
6:30am  -   -   -  25 29 mph 1027.1mb 69f 53f
6:20am  -   -   -  25 31 mph 1027mb 69f 53f
6:10am  -   -   -  25 34 mph 1027mb 69f 53f
6:00am  -   -   -  25 34 mph 1026.9mb - 53f
5:50am 8ft 8s 6s 27 34 mph 1026.5mb 69f 53f
5:40am  -   -   -  29 36 mph 1026.6mb 69f 53f
5:30am  -   -   -  29 36 mph 1026.2mb 69f 53f
5:20am  -   -   -  27 36 mph 1026.3mb 69f 53f
5:10am  -   -   -  29 34 mph 1026mb 69f 53f
5:00am  -   -   -  29 34 mph 1026.4mb 69f 53f
4:50am 7ft 7s 5s 27 34 mph 1026.3mb 69f 54f
4:40am 7ft  -  5s 29 34 mph 1026.5mb 69f 54f
4:30am  -   -   -  29 36 mph 1026.7mb 69f 54f
4:20am  -   -   -  29 36 mph 1026.8mb 69f 54f
4:10am  -   -   -  29 36 mph 1026.8mb 69f 54f
4:00am  -   -   -  29 36 mph 1027mb 69f 54f
3:50am 8ft 7s 6s 29 38 mph 1026.9mb 70f 55f
3:40am 8ft  -  6s 31 40 mph 1026.7mb 70f 55f
3:30am  -   -   -  29 38 mph 1026.8mb 70f 55f
3:20am  -   -   -  31 40 mph 1026.7mb 70f 55f
3:10am  -   -   -  29 38 mph 1026.5mb 70f 55f
3:00am  -   -   -  31 38 mph 1026.5mb 70f 56f
2:50am 9ft 7s 6s 31 40 mph 1026.3mb 70f 56f
2:40am  -   -   -  29 36 mph 1026.4mb - 56f
2:30am  -   -   -  31 40 mph 1026.2mb 70f 56f
2:20am  -   -   -  29 38 mph 1026mb 70f 56f
2:10am  -   -   -  31 38 mph 1026.3mb 70f 56f
2:00am  -   -   -  31 40 mph 1026.2mb 70f 56f
1:50am 8ft 7s 6s 31 40 mph 1026.1mb 70f 56f
1:40am 8ft  -  6s 34 40 mph 1025.9mb 70f 56f
1:30am  -   -   -  31 38 mph 1025.8mb 70f 57f
1:20am  -   -   -  31 40 mph 1025.6mb 70f 57f
1:10am  -   -   -  34 40 mph 1025.4mb 70f 57f
1:00am  -   -   -  31 38 mph 1025.4mb 70f -
12:50am 8.5ft  -  6s 29 38 mph 1025.5mb - 58f